Time;durP1;ratioP1;P1;durP2;ratioP2;P2;SDS_P1;SDS_P2;PMS_P1;PMS_P2;Temp;Humidity;BMP_temperature;BMP_pressure;BME280_temperature;BME280_humidity;BME280_pressure;Samples;Min_cycle;Max_cycle;Signal;HPM_P1;HPM_P2
2022/09/16 00:00:53;;;;;;;3.50;2.10;;;;;;;;;;5014914;28;20684;-88
2022/09/16 00:03:20;;;;;;;3.93;1.97;;;;;;;;;;5015150;28;20214;-87
2022/09/16 00:05:48;;;;;;;3.90;2.00;;;;;;;;;;5015248;28;20715;-87
2022/09/16 00:08:15;;;;;;;3.43;2.10;;;;;;;;;;5016312;28;20221;-86
2022/09/16 00:10:43;;;;;;;2.90;1.70;;;;;;;;;;5014739;28;20239;-87
2022/09/16 00:13:10;;;;;;;2.83;2.10;;;;;;;;;;5014775;28;20215;-88
2022/09/16 00:15:41;;;;;;;4.33;2.20;;;;;;;;;;5014547;28;20257;-86
2022/09/16 00:18:10;;;;;;;4.37;2.00;;;;;;;;;;5014951;28;20215;-87
2022/09/16 00:20:37;;;;;;;1.73;1.63;;;;;;;;;;5014575;28;20573;-88
2022/09/16 00:23:04;;;;;;;2.57;1.90;;;;;;;;;;5014501;28;20207;-87
2022/09/16 00:25:33;;;;;;;3.27;1.87;;;;;;;;;;5014328;28;20234;-88
2022/09/16 00:28:00;;;;;;;5.30;2.43;;;;;;;;;;5014729;28;20667;-87
2022/09/16 00:30:27;;;;;;;2.30;2.10;;;;;;;;;;5014333;28;20722;-86
2022/09/16 00:32:55;;;;;;;3.87;1.97;;;;;;;;;;5014643;28;20199;-85
2022/09/16 00:35:22;;;;;;;3.60;2.07;;;;;;;;;;5014107;28;20239;-87
2022/09/16 00:37:50;;;;;;;2.87;1.87;;;;;;;;;;5014851;28;20219;-88
2022/09/16 00:40:17;;;;;;;2.67;1.90;;;;;;;;;;5014201;28;20607;-86
2022/09/16 00:42:44;;;;;;;4.40;2.20;;;;;;;;;;5015529;28;20208;-87
2022/09/16 00:45:15;;;;;;;4.43;2.20;;;;;;;;;;5014064;28;20593;-89
2022/09/16 00:47:43;;;;;;;2.77;2.00;;;;;;;;;;5015101;28;20207;-86
2022/09/16 00:50:14;;;;;;;3.73;2.00;;;;;;;;;;5014422;28;20285;-88
2022/09/16 00:52:42;;;;;;;3.43;2.13;;;;;;;;;;5014636;28;20204;-87
2022/09/16 00:55:11;;;;;;;2.80;1.80;;;;;;;;;;5014065;28;20726;-88
2022/09/16 00:57:40;;;;;;;3.33;2.20;;;;;;;;;;5014485;28;20214;-88
2022/09/16 01:00:08;;;;;;;2.33;1.67;;;;;;;;;;5013826;28;20258;-88
2022/09/16 01:02:35;;;;;;;2.47;2.10;;;;;;;;;;5014048;28;20683;-88
2022/09/16 01:05:05;;;;;;;2.87;2.00;;;;;;;;;;5025668;28;20241;-85
2022/09/16 01:07:35;;;;;;;3.07;1.87;;;;;;;;;;5032587;28;20226;-88
2022/09/16 01:10:02;;;;;;;2.20;1.90;;;;;;;;;;5031699;28;20612;-88
2022/09/16 01:12:31;;;;;;;2.57;2.07;;;;;;;;;;5018541;28;20695;-86
2022/09/16 01:14:59;;;;;;;5.47;1.97;;;;;;;;;;5029801;28;20730;-87
2022/09/16 01:17:28;;;;;;;2.60;2.20;;;;;;;;;;5036173;28;20257;-88
2022/09/16 01:20:10;;;;;;;2.90;2.00;;;;;;;;;;5020237;28;20241;-88
2022/09/16 01:22:46;;;;;;;2.10;1.90;;;;;;;;;;5013693;28;20207;-88
2022/09/16 01:25:21;;;;;;;2.90;1.93;;;;;;;;;;5027708;28;20312;-87
2022/09/16 01:27:58;;;;;;;4.47;2.47;;;;;;;;;;5033826;28;20217;-88
2022/09/16 01:30:40;;;;;;;2.83;2.00;;;;;;;;;;5016343;28;20239;-87
2022/09/16 01:33:13;;;;;;;4.37;1.90;;;;;;;;;;5013415;28;20207;-86
2022/09/16 01:35:46;;;;;;;4.03;2.10;;;;;;;;;;5031767;28;20235;-87
2022/09/16 01:38:20;;;;;;;2.57;1.93;;;;;;;;;;5033375;28;20221;-88
2022/09/16 01:40:53;;;;;;;5.27;3.77;;;;;;;;;;5012875;28;20231;-87
2022/09/16 01:43:24;;;;;;;3.50;1.90;;;;;;;;;;5013612;28;20242;-88
2022/09/16 01:45:54;;;;;;;3.47;1.90;;;;;;;;;;5013560;28;20302;-88
2022/09/16 01:48:26;;;;;;;4.87;2.43;;;;;;;;;;5012775;28;20246;-89
2022/09/16 01:50:57;;;;;;;2.53;2.27;;;;;;;;;;5013601;28;20216;-88
2022/09/16 01:53:26;;;;;;;4.33;2.07;;;;;;;;;;5013379;28;20215;-87
2022/09/16 01:55:55;;;;;;;4.80;2.20;;;;;;;;;;5012698;28;20234;-88
2022/09/16 01:58:23;;;;;;;4.83;2.30;;;;;;;;;;5013248;28;20207;-88
2022/09/16 02:00:52;;;;;;;4.77;1.90;;;;;;;;;;5013374;28;20222;-89
2022/09/16 02:03:23;;;;;;;4.23;2.00;;;;;;;;;;5013549;28;20223;-87
2022/09/16 02:05:52;;;;;;;5.10;2.17;;;;;;;;;;5013210;28;20637;-87
2022/09/16 02:08:22;;;;;;;5.23;2.13;;;;;;;;;;5013112;28;20215;-87
2022/09/16 02:10:51;;;;;;;4.60;2.03;;;;;;;;;;5012975;28;20234;-86
2022/09/16 02:13:20;;;;;;;4.47;2.00;;;;;;;;;;5013426;28;20203;-87
2022/09/16 02:15:49;;;;;;;2.27;1.87;;;;;;;;;;5013129;28;20227;-87
2022/09/16 02:18:18;;;;;;;6.97;2.10;;;;;;;;;;5012948;28;20218;-88
2022/09/16 02:20:48;;;;;;;3.13;1.80;;;;;;;;;;5032681;28;20226;-88
2022/09/16 02:23:15;;;;;;;4.13;1.97;;;;;;;;;;5032811;28;20207;-87
2022/09/16 02:25:45;;;;;;;3.03;1.60;;;;;;;;;;5032223;28;20238;-88
2022/09/16 02:28:14;;;;;;;2.13;1.67;;;;;;;;;;5032753;28;20203;-88
2022/09/16 02:30:43;;;;;;;17.83;2.97;;;;;;;;;;5032436;28;20238;-88
2022/09/16 02:33:18;;;;;;;1.97;1.77;;;;;;;;;;5033143;28;20243;-88
2022/09/16 02:35:48;;;;;;;6.07;2.00;;;;;;;;;;5033114;28;20238;-88
2022/09/16 02:38:17;;;;;;;2.70;1.93;;;;;;;;;;5040067;28;20202;-88
2022/09/16 02:40:46;;;;;;;2.27;2.00;;;;;;;;;;5044683;28;20230;-85
2022/09/16 02:43:13;;;;;;;3.03;1.90;;;;;;;;;;5052308;28;20282;-88
2022/09/16 02:45:46;;;;;;;6.10;2.53;;;;;;;;;;5048800;28;20246;-86
2022/09/16 02:48:16;;;;;;;2.03;1.80;;;;;;;;;;5049563;28;20207;-87
2022/09/16 02:50:44;;;;;;;3.47;1.70;;;;;;;;;;5038094;28;20617;-88
2022/09/16 02:53:18;;;;;;;2.40;1.60;;;;;;;;;;5036056;28;20206;-88
2022/09/16 02:55:49;;;;;;;2.83;2.10;;;;;;;;;;5035786;28;20238;-88
2022/09/16 02:58:16;;;;;;;2.70;1.70;;;;;;;;;;5036315;28;20203;-88
2022/09/16 03:00:46;;;;;;;3.67;1.90;;;;;;;;;;5035855;28;20611;-86
2022/09/16 03:03:13;;;;;;;3.63;2.30;;;;;;;;;;5036147;28;20558;-88
2022/09/16 03:05:58;;;;;;;3.33;2.00;;;;;;;;;;5035391;28;20665;-86
2022/09/16 03:08:27;;;;;;;4.90;1.83;;;;;;;;;;5035647;28;20190;-88
2022/09/16 03:10:56;;;;;;;5.83;2.00;;;;;;;;;;5032816;28;20241;-87
2022/09/16 03:13:29;;;;;;;3.63;1.87;;;;;;;;;;5034444;28;20294;-88
2022/09/16 03:15:59;;;;;;;3.37;1.97;;;;;;;;;;5035327;28;20231;-88
2022/09/16 03:18:33;;;;;;;4.00;2.00;;;;;;;;;;5034433;28;20202;-88
2022/09/16 03:21:01;;;;;;;2.73;1.63;;;;;;;;;;5015915;28;20200;-88
2022/09/16 03:23:34;;;;;;;3.47;1.80;;;;;;;;;;5022059;28;20580;-88
2022/09/16 03:26:06;;;;;;;4.07;2.27;;;;;;;;;;5035049;28;20722;-88
2022/09/16 03:28:38;;;;;;;5.10;1.93;;;;;;;;;;4996026;28;20192;-88
2022/09/16 03:31:07;;;;;;;6.00;2.10;;;;;;;;;;4996280;28;20203;-87
2022/09/16 03:33:36;;;;;;;4.03;2.10;;;;;;;;;;4995518;28;20203;-87
2022/09/16 03:36:05;;;;;;;3.60;1.80;;;;;;;;;;4996013;28;20232;-86
2022/09/16 03:38:34;;;;;;;3.73;2.60;;;;;;;;;;4995575;28;20258;-88
2022/09/16 03:41:02;;;;;;;2.50;1.80;;;;;;;;;;4996040;28;20204;-87
2022/09/16 03:43:29;;;;;;;3.37;1.63;;;;;;;;;;4995615;28;20724;-87
2022/09/16 03:45:56;;;;;;;4.60;2.90;;;;;;;;;;4996232;28;20623;-87
2022/09/16 03:48:24;;;;;;;2.43;1.63;;;;;;;;;;4994229;28;20577;-88
2022/09/16 03:50:51;;;;;;;2.70;1.50;;;;;;;;;;4995497;28;20623;-86
2022/09/16 03:53:18;;;;;;;4.10;1.80;;;;;;;;;;4995977;28;20219;-87
2022/09/16 03:55:49;;;;;;;1.90;1.60;;;;;;;;;;5015514;28;20239;-87
2022/09/16 03:58:16;;;;;;;3.07;1.67;;;;;;;;;;5015140;28;20192;-86
2022/09/16 04:00:43;;;;;;;2.73;1.60;;;;;;;;;;5014607;28;20247;-88
2022/09/16 04:03:10;;;;;;;3.27;1.73;;;;;;;;;;5015538;28;20226;-87
2022/09/16 04:05:37;;;;;;;3.70;1.80;;;;;;;;;;5014550;28;20235;-88
2022/09/16 04:08:04;;;;;;;5.23;1.70;;;;;;;;;;5015338;28;20208;-88
2022/09/16 04:10:33;;;;;;;2.40;1.57;;;;;;;;;;5014472;28;20250;-88
2022/09/16 04:13:02;;;;;;;2.60;1.50;;;;;;;;;;5014822;28;20302;-85
2022/09/16 04:15:29;;;;;;;2.70;1.63;;;;;;;;;;5014174;28;20238;-88
2022/09/16 04:17:56;;;;;;;2.87;1.73;;;;;;;;;;5015878;28;20195;-90
2022/09/16 04:20:23;;;;;;;2.33;1.90;;;;;;;;;;5014328;28;20231;-90
2022/09/16 04:22:50;;;;;;;3.67;1.70;;;;;;;;;;5015330;28;20404;-89
2022/09/16 04:25:17;;;;;;;4.60;2.00;;;;;;;;;;5013938;28;20235;-86
2022/09/16 04:27:44;;;;;;;3.70;1.80;;;;;;;;;;5014313;28;20218;-84
2022/09/16 04:30:14;;;;;;;3.77;2.10;;;;;;;;;;5013878;28;20321;-84
2022/09/16 04:32:41;;;;;;;3.37;1.80;;;;;;;;;;5014208;28;20586;-84
2022/09/16 04:35:08;;;;;;;2.77;1.80;;;;;;;;;;5013759;28;20238;-84
2022/09/16 04:37:35;;;;;;;3.97;1.80;;;;;;;;;;5014326;28;20206;-84
2022/09/16 04:40:02;;;;;;;4.10;1.80;;;;;;;;;;5013828;28;20235;-84
2022/09/16 04:42:30;;;;;;;3.97;1.50;;;;;;;;;;5014026;28;20667;-84
2022/09/16 04:44:57;;;;;;;5.23;2.00;;;;;;;;;;5013341;28;20608;-85
2022/09/16 04:47:25;;;;;;;5.87;2.63;;;;;;;;;;5014044;28;20203;-84
2022/09/16 04:49:52;;;;;;;1.73;1.60;;;;;;;;;;5013785;28;20246;-84
2022/09/16 04:52:19;;;;;;;4.80;1.70;;;;;;;;;;5014211;28;20207;-86
2022/09/16 04:54:46;;;;;;;4.60;2.10;;;;;;;;;;5013362;28;20247;-83
2022/09/16 04:57:13;;;;;;;2.87;2.00;;;;;;;;;;5014121;28;20218;-84
2022/09/16 04:59:40;;;;;;;3.57;1.93;;;;;;;;;;5014925;28;20250;-83
2022/09/16 05:02:07;;;;;;;3.30;1.77;;;;;;;;;;5016050;28;20218;-84
2022/09/16 05:04:36;;;;;;;6.60;1.80;;;;;;;;;;5015007;28;20239;-84
2022/09/16 05:07:03;;;;;;;2.97;1.73;;;;;;;;;;5014577;28;20261;-84
2022/09/16 05:09:30;;;;;;;4.60;1.80;;;;;;;;;;5013649;28;20242;-84
2022/09/16 05:11:57;;;;;;;6.37;1.70;;;;;;;;;;5014114;28;20689;-86
2022/09/16 05:14:24;;;;;;;1.87;1.67;;;;;;;;;;5013549;28;20245;-86
2022/09/16 05:16:51;;;;;;;2.90;1.63;;;;;;;;;;5014307;28;20234;-86
2022/09/16 05:19:18;;;;;;;5.90;2.10;;;;;;;;;;5013477;28;20322;-85
2022/09/16 05:21:46;;;;;;;4.27;1.80;;;;;;;;;;5013881;28;20230;-86
2022/09/16 05:24:14;;;;;;;3.77;1.90;;;;;;;;;;5013295;28;20741;-86
2022/09/16 05:26:42;;;;;;;7.73;2.30;;;;;;;;;;5013715;28;20675;-86
2022/09/16 05:29:12;;;;;;;5.47;2.17;;;;;;;;;;5012757;28;20258;-86
2022/09/16 05:31:41;;;;;;;4.27;1.93;;;;;;;;;;5024820;28;20667;-85
2022/09/16 05:34:12;;;;;;;5.07;1.80;;;;;;;;;;5031694;28;20231;-85
2022/09/16 05:36:40;;;;;;;3.37;1.90;;;;;;;;;;5032136;28;20226;-85
2022/09/16 05:39:10;;;;;;;8.03;2.10;;;;;;;;;;5032027;28;20593;-85
2022/09/16 05:41:37;;;;;;;3.37;2.00;;;;;;;;;;5032099;28;20199;-85
2022/09/16 05:44:05;;;;;;;4.23;2.03;;;;;;;;;;5030753;28;20234;-86
2022/09/16 05:46:32;;;;;;;4.90;2.20;;;;;;;;;;5032244;28;20321;-86
2022/09/16 05:49:00;;;;;;;3.37;1.63;;;;;;;;;;5031871;28;20234;-86
2022/09/16 05:51:27;;;;;;;5.13;2.27;;;;;;;;;;5032234;28;20245;-86
2022/09/16 05:53:54;;;;;;;4.53;2.07;;;;;;;;;;5031743;28;20629;-85
2022/09/16 05:56:24;;;;;;;5.40;1.70;;;;;;;;;;5031967;28;20317;-86
2022/09/16 05:58:52;;;;;;;4.43;2.07;;;;;;;;;;5038733;28;20226;-85
2022/09/16 06:01:20;;;;;;;2.03;1.70;;;;;;;;;;5035582;28;20809;-86
2022/09/16 06:03:48;;;;;;;3.20;1.80;;;;;;;;;;5032097;28;20550;-86
2022/09/16 06:06:16;;;;;;;3.03;1.83;;;;;;;;;;5031242;28;20230;-85
2022/09/16 06:08:44;;;;;;;2.60;1.57;;;;;;;;;;5031462;28;20273;-85
2022/09/16 06:11:11;;;;;;;3.27;1.90;;;;;;;;;;5031534;28;20297;-86
2022/09/16 06:13:40;;;;;;;2.70;1.80;;;;;;;;;;5031158;28;20245;-86
2022/09/16 06:16:08;;;;;;;3.70;1.40;;;;;;;;;;5031512;28;20230;-86
2022/09/16 06:18:35;;;;;;;4.90;1.70;;;;;;;;;;5031619;28;20670;-86
2022/09/16 06:21:04;;;;;;;5.57;1.97;;;;;;;;;;5030640;28;20203;-85
2022/09/16 06:23:31;;;;;;;3.37;1.63;;;;;;;;;;5030956;28;20203;-86
2022/09/16 06:26:01;;;;;;;3.47;2.07;;;;;;;;;;5031871;28;20241;-85
2022/09/16 06:28:28;;;;;;;3.03;1.80;;;;;;;;;;5031607;28;20207;-86
2022/09/16 06:31:03;;;;;;;2.00;1.80;;;;;;;;;;5032388;28;20203;-86
2022/09/16 06:33:30;;;;;;;7.70;2.33;;;;;;;;;;5031692;28;20492;-87
2022/09/16 06:35:57;;;;;;;6.40;2.00;;;;;;;;;;5032320;28;20261;-87
2022/09/16 06:38:24;;;;;;;2.47;2.10;;;;;;;;;;5031854;28;20214;-86
2022/09/16 06:40:51;;;;;;;4.10;2.23;;;;;;;;;;5031922;28;20690;-85
2022/09/16 06:43:18;;;;;;;4.13;2.17;;;;;;;;;;5032021;28;20203;-84
2022/09/16 06:45:45;;;;;;;8.47;2.80;;;;;;;;;;5032781;28;20227;-85
2022/09/16 06:48:14;;;;;;;3.67;1.87;;;;;;;;;;5034936;28;20217;-85
2022/09/16 06:50:41;;;;;;;3.30;1.87;;;;;;;;;;5035569;28;20230;-86
2022/09/16 06:53:08;;;;;;;6.23;2.50;;;;;;;;;;5035733;28;20246;-85
2022/09/16 06:55:35;;;;;;;2.67;2.20;;;;;;;;;;5033905;28;20269;-85
2022/09/16 06:58:02;;;;;;;5.00;2.23;;;;;;;;;;5034300;28;20211;-84
2022/09/16 07:00:29;;;;;;;3.13;2.00;;;;;;;;;;5035311;28;20234;-85
2022/09/16 07:02:56;;;;;;;2.70;2.23;;;;;;;;;;5034662;28;20303;-85
2022/09/16 07:05:25;;;;;;;2.93;1.83;;;;;;;;;;5034554;28;20253;-85
2022/09/16 07:07:52;;;;;;;8.00;3.03;;;;;;;;;;5035498;28;20203;-84
2022/09/16 07:10:20;;;;;;;3.63;1.70;;;;;;;;;;5033467;28;20241;-84
2022/09/16 07:12:47;;;;;;;4.07;2.30;;;;;;;;;;5035537;28;20253;-86
2022/09/16 07:15:14;;;;;;;7.30;2.03;;;;;;;;;;5036230;28;20242;-86
2022/09/16 07:17:41;;;;;;;3.20;2.23;;;;;;;;;;5035023;28;20223;-86
2022/09/16 07:20:08;;;;;;;5.53;2.00;;;;;;;;;;5036091;28;20246;-87
2022/09/16 07:22:37;;;;;;;2.90;1.90;;;;;;;;;;5035659;28;20214;-87
2022/09/16 07:25:04;;;;;;;3.40;1.97;;;;;;;;;;5037811;28;20702;-86
2022/09/16 07:27:31;;;;;;;2.07;1.63;;;;;;;;;;5039607;28;20206;-86
2022/09/16 07:29:58;;;;;;;3.90;1.60;;;;;;;;;;5038154;28;20231;-86
2022/09/16 07:32:25;;;;;;;4.33;2.17;;;;;;;;;;5038733;28;20214;-86
2022/09/16 07:34:52;;;;;;;3.13;1.63;;;;;;;;;;5038555;28;20245;-86
2022/09/16 07:37:20;;;;;;;5.23;1.87;;;;;;;;;;5038896;28;20238;-86
2022/09/16 07:39:49;;;;;;;4.47;1.70;;;;;;;;;;5043049;28;20235;-86
2022/09/16 07:42:16;;;;;;;5.60;1.70;;;;;;;;;;5039721;28;20215;-86
2022/09/16 07:44:43;;;;;;;2.80;1.40;;;;;;;;;;5037738;28;20243;-86
2022/09/16 07:47:10;;;;;;;4.00;1.67;;;;;;;;;;5039699;28;20206;-86
2022/09/16 07:49:37;;;;;;;5.07;1.57;;;;;;;;;;5039068;28;20237;-86
2022/09/16 07:52:04;;;;;;;8.53;1.63;;;;;;;;;;5038552;28;20213;-87
2022/09/16 07:54:31;;;;;;;5.33;2.43;;;;;;;;;;5038090;28;20242;-86
2022/09/16 07:57:00;;;;;;;6.87;1.83;;;;;;;;;;5039628;28;20226;-86
2022/09/16 07:59:27;;;;;;;4.63;1.70;;;;;;;;;;5038274;28;20237;-86
2022/09/16 08:01:54;;;;;;;5.07;1.50;;;;;;;;;;5039161;28;20229;-87
2022/09/16 08:04:21;;;;;;;3.67;1.67;;;;;;;;;;5037738;28;20288;-87
2022/09/16 08:06:49;;;;;;;5.17;1.83;;;;;;;;;;5039217;28;20586;-86
2022/09/16 08:09:16;;;;;;;4.93;1.70;;;;;;;;;;5038496;28;20235;-87
2022/09/16 08:11:43;;;;;;;3.80;1.27;;;;;;;;;;5037147;28;20241;-87
2022/09/16 08:14:11;;;;;;;9.13;1.63;;;;;;;;;;5038034;28;20238;-87
2022/09/16 08:16:38;;;;;;;4.10;1.53;;;;;;;;;;5039682;28;20238;-87
2022/09/16 08:19:05;;;;;;;5.10;1.60;;;;;;;;;;5037542;28;20238;-88
2022/09/16 08:21:32;;;;;;;8.90;2.70;;;;;;;;;;5041498;28;20234;-87
2022/09/16 08:23:59;;;;;;;5.83;2.07;;;;;;;;;;5041283;28;20318;-87
2022/09/16 08:26:27;;;;;;;3.17;1.50;;;;;;;;;;5039299;28;20710;-86
2022/09/16 08:28:54;;;;;;;3.97;1.40;;;;;;;;;;5038146;28;20232;-87
2022/09/16 08:31:22;;;;;;;6.67;1.57;;;;;;;;;;5038575;28;20578;-86
2022/09/16 08:33:49;;;;;;;6.77;2.10;;;;;;;;;;5037601;28;20245;-87
2022/09/16 08:36:18;;;;;;;5.07;1.80;;;;;;;;;;5037501;28;20230;-87
2022/09/16 08:38:45;;;;;;;6.80;1.80;;;;;;;;;;5037316;28;20242;-87
2022/09/16 08:41:20;;;;;;;4.00;1.50;;;;;;;;;;5038554;28;20215;-86
2022/09/16 08:43:51;;;;;;;3.83;1.70;;;;;;;;;;5037444;28;20234;-86
2022/09/16 08:46:21;;;;;;;2.90;1.80;;;;;;;;;;5037112;28;20225;-87
2022/09/16 08:48:53;;;;;;;3.37;2.80;;;;;;;;;;5037877;28;20293;-87
2022/09/16 08:51:21;;;;;;;5.20;1.60;;;;;;;;;;5038471;28;20605;-87
2022/09/16 08:53:50;;;;;;;7.57;1.77;;;;;;;;;;5036119;28;20239;-87
2022/09/16 08:56:19;;;;;;;2.40;1.50;;;;;;;;;;5037704;28;20234;-87
2022/09/16 08:58:52;;;;;;;5.53;1.43;;;;;;;;;;5037262;28;20234;-87
2022/09/16 09:01:23;;;;;;;3.47;1.55;;;;;;;;;;5037121;28;20241;-88
2022/09/16 09:03:52;;;;;;;4.40;1.60;;;;;;;;;;5024385;28;20242;-88
2022/09/16 09:06:25;;;;;;;2.50;1.00;;;;;;;;;;5038070;28;20237;-87
2022/09/16 09:08:56;;;;;;;6.93;1.42;;;;;;;;;;5037514;28;20251;-87
2022/09/16 09:11:27;;;;;;;3.22;1.30;;;;;;;;;;5037473;28;20679;-88
2022/09/16 09:14:03;;;;;;;3.67;2.00;;;;;;;;;;5036597;28;20241;-87
2022/09/16 09:16:37;;;;;;;1.95;1.05;;;;;;;;;;5038162;28;20303;-87
2022/09/16 09:19:20;;;;;;;6.82;1.48;;;;;;;;;;5036272;28;20234;-87
2022/09/16 09:21:50;;;;;;;4.43;1.25;;;;;;;;;;5036094;28;20202;-87
2022/09/16 09:24:25;;;;;;;3.28;1.10;;;;;;;;;;5037100;28;20306;-87
2022/09/16 09:26:53;;;;;;;2.45;1.33;;;;;;;;;;5038499;28;20202;-87
2022/09/16 09:29:27;;;;;;;6.65;2.20;;;;;;;;;;5036754;28;20293;-86
2022/09/16 09:31:58;;;;;;;3.08;1.52;;;;;;;;;;5037172;28;20202;-87
2022/09/16 09:34:33;;;;;;;2.88;1.50;;;;;;;;;;5032965;28;20231;-86
2022/09/16 09:37:04;;;;;;;2.40;1.30;;;;;;;;;;5034541;28;20233;-88
2022/09/16 09:39:35;;;;;;;8.55;1.65;;;;;;;;;;5036441;28;20664;-87
2022/09/16 09:42:06;;;;;;;4.25;1.17;;;;;;;;;;5037683;28;20183;-88
2022/09/16 09:44:41;;;;;;;3.42;0.90;;;;;;;;;;5036465;28;20302;-87
2022/09/16 09:47:12;;;;;;;5.30;1.17;;;;;;;;;;5037759;28;20580;-88
2022/09/16 09:49:43;;;;;;;4.13;1.20;;;;;;;;;;5036739;28;20234;-88
2022/09/16 09:52:14;;;;;;;3.75;1.25;;;;;;;;;;5037749;28;20218;-88
2022/09/16 09:54:44;;;;;;;3.65;1.25;;;;;;;;;;5037078;28;20235;-86
2022/09/16 09:57:13;;;;;;;2.60;1.30;;;;;;;;;;5037857;28;20241;-87
2022/09/16 09:59:44;;;;;;;3.47;1.50;;;;;;;;;;5036738;28;20737;-86
2022/09/16 10:02:15;;;;;;;5.70;1.17;;;;;;;;;;5036159;28;20187;-88
2022/09/16 10:04:44;;;;;;;3.50;1.45;;;;;;;;;;5036740;28;20242;-86
2022/09/16 10:07:12;;;;;;;2.85;0.88;;;;;;;;;;5037308;28;20198;-86
2022/09/16 10:09:45;;;;;;;4.28;1.17;;;;;;;;;;5037010;28;20245;-86
2022/09/16 10:12:13;;;;;;;3.38;1.40;;;;;;;;;;5037358;28;20245;-87
2022/09/16 10:14:40;;;;;;;1.13;0.80;;;;;;;;;;5035366;28;20238;-85
2022/09/16 10:17:16;;;;;;;1.80;0.90;;;;;;;;;;5037653;28;20231;-85
2022/09/16 10:19:52;;;;;;;2.70;1.20;;;;;;;;;;5041456;28;20233;-85
2022/09/16 10:22:22;;;;;;;3.08;1.38;;;;;;;;;;5032661;28;20632;-85
2022/09/16 10:24:54;;;;;;;3.25;1.08;;;;;;;;;;5032617;28;20242;-85
2022/09/16 10:27:22;;;;;;;3.55;1.15;;;;;;;;;;5033645;28;20206;-86
2022/09/16 10:30:02;;;;;;;1.98;0.90;;;;;;;;;;5034734;28;20238;-89
2022/09/16 10:32:30;;;;;;;2.33;0.98;;;;;;;;;;5034644;28;20182;-89
2022/09/16 10:34:58;;;;;;;2.80;0.85;;;;;;;;;;5031945;28;20246;-88
2022/09/16 10:37:26;;;;;;;2.63;0.90;;;;;;;;;;5032516;28;20230;-88
2022/09/16 10:39:54;;;;;;;1.27;0.88;;;;;;;;;;5032099;28;20239;-88
2022/09/16 10:42:22;;;;;;;4.45;1.15;;;;;;;;;;5032708;28;20202;-89
2022/09/16 10:44:51;;;;;;;2.55;1.20;;;;;;;;;;5032730;28;20250;-88
2022/09/16 10:47:20;;;;;;;2.75;1.20;;;;;;;;;;5046503;28;20207;-89
2022/09/16 10:49:50;;;;;;;1.52;1.00;;;;;;;;;;5036738;28;20226;-89
2022/09/16 10:52:19;;;;;;;2.78;1.05;;;;;;;;;;5042207;28;20205;-89
2022/09/16 10:54:46;;;;;;;1.27;0.68;;;;;;;;;;5035339;28;20729;-88
2022/09/16 10:57:24;;;;;;;3.50;1.17;;;;;;;;;;5036917;28;20231;-88
2022/09/16 11:00:01;;;;;;;0.98;0.75;;;;;;;;;;5037872;28;20258;-89
2022/09/16 11:02:38;;;;;;;2.35;1.17;;;;;;;;;;5037446;28;20228;-88
2022/09/16 11:05:08;;;;;;;3.50;1.15;;;;;;;;;;5036262;28;20241;-89
2022/09/16 11:07:42;;;;;;;2.53;1.30;;;;;;;;;;5043614;28;20187;-88
2022/09/16 11:10:13;;;;;;;2.35;1.00;;;;;;;;;;5055060;28;20222;-89
2022/09/16 11:13:00;;;;;;;2.03;0.98;;;;;;;;;;5058043;28;20217;-90
2022/09/16 11:15:32;;;;;;;0.60;0.60;;;;;;;;;;5057023;28;20226;-90
2022/09/16 11:18:05;;;;;;;1.30;0.95;;;;;;;;;;5056422;28;20214;-89
2022/09/16 11:20:45;;;;;;;3.13;1.10;;;;;;;;;;5053573;28;20230;-88
2022/09/16 11:23:22;;;;;;;1.42;0.90;;;;;;;;;;5052633;28;20191;-85
2022/09/16 11:25:52;;;;;;;1.85;1.25;;;;;;;;;;5059659;22;20627;-81
2022/09/16 11:28:36;;;;;;;6.13;0.93;;;;;;;;;;5057727;28;20256;-81
2022/09/16 11:31:07;;;;;;;1.45;0.80;;;;;;;;;;5059547;28;20194;-82
2022/09/16 11:33:37;;;;;;;5.25;1.58;;;;;;;;;;5055615;28;20232;-82
2022/09/16 11:36:25;;;;;;;1.70;0.80;;;;;;;;;;5049797;28;20222;-81
2022/09/16 11:39:00;;;;;;;1.83;0.60;;;;;;;;;;5055350;28;20705;-81
2022/09/16 11:41:30;;;;;;;3.22;1.15;;;;;;;;;;5077083;28;20568;-81
2022/09/16 11:44:08;;;;;;;0.82;0.70;;;;;;;;;;5076487;28;20259;-82
2022/09/16 11:46:40;;;;;;;1.40;0.90;;;;;;;;;;5077945;28;20221;-81
2022/09/16 11:49:15;;;;;;;2.60;0.93;;;;;;;;;;5076519;28;20256;-82
2022/09/16 11:51:51;;;;;;;2.00;0.80;;;;;;;;;;5078688;28;20196;-82
2022/09/16 11:54:27;;;;;;;1.77;1.05;;;;;;;;;;5077412;28;20240;-83
2022/09/16 11:56:57;;;;;;;1.20;0.68;;;;;;;;;;5077997;28;20252;-82
2022/09/16 11:59:27;;;;;;;1.85;1.10;;;;;;;;;;5076634;28;20229;-87
2022/09/16 12:01:57;;;;;;;1.13;0.75;;;;;;;;;;5075681;28;20558;-86
2022/09/16 12:04:27;;;;;;;2.58;1.00;;;;;;;;;;5075017;28;20271;-87
2022/09/16 12:06:59;;;;;;;4.60;1.02;;;;;;;;;;5075398;28;20224;-87
2022/09/16 12:09:32;;;;;;;1.15;0.95;;;;;;;;;;5074828;28;20312;-86
2022/09/16 12:12:05;;;;;;;3.92;1.33;;;;;;;;;;5075820;28;20553;-87
2022/09/16 12:14:36;;;;;;;1.63;1.10;;;;;;;;;;5075840;28;20240;-90
2022/09/16 12:17:05;;;;;;;1.52;0.73;;;;;;;;;;5076265;28;20221;-88
2022/09/16 12:19:36;;;;;;;3.65;0.80;;;;;;;;;;5075136;28;20233;-87
2022/09/16 12:22:05;;;;;;;4.68;1.20;;;;;;;;;;5066445;28;20194;-87
2022/09/16 12:24:38;;;;;;;2.00;0.68;;;;;;;;;;5044739;28;20238;-87
2022/09/16 12:27:07;;;;;;;1.92;1.02;;;;;;;;;;5035333;28;20265;-87
2022/09/16 12:29:37;;;;;;;2.88;0.75;;;;;;;;;;5034286;28;20324;-86
2022/09/16 12:32:05;;;;;;;3.83;1.00;;;;;;;;;;5035007;28;20207;-87
2022/09/16 12:34:35;;;;;;;5.43;0.95;;;;;;;;;;5034520;28;20234;-87
2022/09/16 12:37:06;;;;;;;1.45;0.80;;;;;;;;;;5036099;28;20231;-87
2022/09/16 12:39:35;;;;;;;2.38;1.00;;;;;;;;;;5035052;28;20250;-88
2022/09/16 12:42:18;;;;;;;2.15;0.80;;;;;;;;;;5035448;28;20210;-88
2022/09/16 12:45:03;;;;;;;1.65;0.70;;;;;;;;;;5034501;28;20234;-86
2022/09/16 12:47:40;;;;;;;1.92;0.90;;;;;;;;;;5034953;28;20213;-86
2022/09/16 12:50:18;;;;;;;3.20;0.73;;;;;;;;;;5034365;28;20303;-85
2022/09/16 12:53:09;;;;;;;2.05;0.65;;;;;;;;;;5034695;28;20198;-86
2022/09/16 12:55:43;;;;;;;2.33;0.73;;;;;;;;;;4978127;28;20244;-85
2022/09/16 12:58:23;;;;;;;1.17;0.60;;;;;;;;;;5034514;28;20702;-86
2022/09/16 13:00:54;;;;;;;0.52;0.50;;;;;;;;;;5054877;28;20582;-87
2022/09/16 13:03:23;;;;;;;1.08;1.00;;;;;;;;;;5055827;28;20190;-86
2022/09/16 13:05:54;;;;;;;0.70;0.63;;;;;;;;;;5065155;28;20229;-87
2022/09/16 13:08:22;;;;;;;1.60;0.65;;;;;;;;;;5074007;28;20213;-86
2022/09/16 13:10:57;;;;;;;4.45;0.93;;;;;;;;;;5073761;28;20208;-85
2022/09/16 13:13:30;;;;;;;1.08;0.70;;;;;;;;;;5073467;28;20657;-85
2022/09/16 13:15:59;;;;;;;1.63;0.80;;;;;;;;;;5074431;28;20267;-85
2022/09/16 13:18:39;;;;;;;2.22;0.80;;;;;;;;;;5073425;28;20220;-85
2022/09/16 13:21:07;;;;;;;1.63;0.90;;;;;;;;;;5073308;28;20201;-85
2022/09/16 13:23:35;;;;;;;2.78;0.95;;;;;;;;;;5075241;28;20206;-86
2022/09/16 13:26:05;;;;;;;0.77;0.73;;;;;;;;;;5073890;28;20278;-88
2022/09/16 13:28:37;;;;;;;1.48;1.02;;;;;;;;;;5073985;28;20215;-89
2022/09/16 13:31:16;;;;;;;2.38;0.85;;;;;;;;;;5074340;28;20201;-86
2022/09/16 13:33:44;;;;;;;2.38;0.80;;;;;;;;;;5073906;28;20613;-86
2022/09/16 13:36:29;;;;;;;1.30;0.63;;;;;;;;;;5073732;28;20704;-87
2022/09/16 13:38:57;;;;;;;1.40;0.73;;;;;;;;;;5073249;28;20233;-86
2022/09/16 13:41:35;;;;;;;0.95;0.65;;;;;;;;;;5073752;28;20201;-87
2022/09/16 13:44:04;;;;;;;2.65;0.90;;;;;;;;;;5073278;28;20233;-88
2022/09/16 13:46:36;;;;;;;3.53;0.80;;;;;;;;;;5073725;28;20224;-86
2022/09/16 13:49:20;;;;;;;2.25;0.77;;;;;;;;;;5073366;28;20618;-85
2022/09/16 13:51:49;;;;;;;3.83;0.70;;;;;;;;;;5073903;28;20181;-85
2022/09/16 13:54:20;;;;;;;2.17;0.90;;;;;;;;;;5074147;28;20606;-85
2022/09/16 13:56:55;;;;;;;0.95;0.65;;;;;;;;;;5074350;28;20629;-86
2022/09/16 13:59:29;;;;;;;1.45;0.70;;;;;;;;;;5053200;28;20243;-88
2022/09/16 14:02:01;;;;;;;1.33;1.23;;;;;;;;;;5053304;28;20223;-90
2022/09/16 14:04:35;;;;;;;2.70;0.90;;;;;;;;;;5053512;28;20244;-88
2022/09/16 14:07:08;;;;;;;1.13;0.68;;;;;;;;;;5053915;28;20260;-90
2022/09/16 14:09:39;;;;;;;0.75;0.75;;;;;;;;;;5053554;28;20886;-90
2022/09/16 14:12:13;;;;;;;0.82;0.52;;;;;;;;;;5053973;28;20217;-90
2022/09/16 14:14:41;;;;;;;0.68;0.65;;;;;;;;;;5053996;28;20766;-87
2022/09/16 14:17:15;;;;;;;0.50;0.45;;;;;;;;;;5053784;28;20198;-88
2022/09/16 14:19:45;;;;;;;1.33;0.90;;;;;;;;;;5059551;28;20617;-88
2022/09/16 14:22:16;;;;;;;0.80;0.60;;;;;;;;;;5082753;28;20201;-91
2022/09/16 14:24:44;;;;;;;1.60;0.70;;;;;;;;;;5078220;28;20237;-89
2022/09/16 14:30:17;;;;;;;1.63;0.70;;;;;;;;;;5076552;28;20228;-88
2022/09/16 14:32:45;;;;;;;0.52;0.52;;;;;;;;;;5089753;28;20215;-91
2022/09/16 14:35:16;;;;;;;0.70;0.60;;;;;;;;;;5081547;28;20667;-90
2022/09/16 14:37:45;;;;;;;2.42;0.90;;;;;;;;;;5081642;28;20196;-89
2022/09/16 14:43:18;;;;;;;1.08;0.45;;;;;;;;;;5079162;28;20679;-88
2022/09/16 14:45:48;;;;;;;1.00;0.80;;;;;;;;;;5059232;28;20225;-89
2022/09/16 14:48:15;;;;;;;3.13;0.80;;;;;;;;;;5059852;28;20206;-87
2022/09/16 14:50:44;;;;;;;0.90;0.90;;;;;;;;;;5056844;28;20232;-87
2022/09/16 14:53:31;;;;;;;1.92;0.73;;;;;;;;;;5052888;28;20210;-87
2022/09/16 14:55:59;;;;;;;1.75;0.80;;;;;;;;;;5039204;28;20313;-87
2022/09/16 14:58:28;;;;;;;0.50;0.50;;;;;;;;;;5037418;28;20226;-87
2022/09/16 15:00:59;;;;;;;1.15;0.80;;;;;;;;;;5037853;28;20194;-88
2022/09/16 15:03:39;;;;;;;2.75;0.90;;;;;;;;;;5050846;28;20202;-88
2022/09/16 15:06:27;;;;;;;0.52;0.43;;;;;;;;;;5060045;28;20233;-87